This is the latest recevied weather packets stored in our database for station/object DO1BDB-12. If no packets are shown the sender has not sent any weather packets the latest 10 day(s).
| Time | Temp. | Humidity | Pressure | Rain* | Wind** | Luminosity | Snow |
|---|---|---|---|---|---|---|---|
| 1777990336 | 12.78° C | 80% | 101.1 hPa | - | - | - | - |
| 1777990072 | 12.22° C | 82% | 101.1 hPa | - | - | - | - |
| 1777990007 | 12.22° C | 82% | 101.1 hPa | - | - | - | - |
| 1777989941 | 12.22° C | 81% | 101.1 hPa | - | - | - | - |
| 1777989875 | 12.22° C | 82% | 101.1 hPa | - | - | - | - |
| 1777989809 | 12.22° C | 81% | 101.1 hPa | - | - | - | - |
| 1777989743 | 12.22° C | 81% | 101.1 hPa | - | - | - | - |
| 1777989677 | 12.22° C | 80% | 101.1 hPa | - | - | - | - |
| 1777989611 | 12.22° C | 81% | 101.1 hPa | - | - | - | - |
| 1777989546 | 12.78° C | 81% | 101.1 hPa | - | - | - | - |
| 1777989480 | 12.22° C | 81% | 101.1 hPa | - | - | - | - |
| 1777989414 | 12.22° C | 81% | 101.1 hPa | - | - | - | - |
| 1777989348 | 12.22° C | 82% | 101.1 hPa | - | - | - | - |
| 1777989282 | 12.22° C | 83% | 101.1 hPa | - | - | - | - |
| 1777989216 | 11.67° C | 83% | 101.1 hPa | - | - | - | - |
| 1777989151 | 12.78° C | 80% | 101.1 hPa | - | - | - | - |
| 1777989085 | 12.78° C | 80% | 101.1 hPa | - | - | - | - |
| 1777989019 | 12.78° C | 80% | 101.1 hPa | - | - | - | - |
| 1777988953 | 13.33° C | 80% | 101.1 hPa | - | - | - | - |
| 1777988887 | 12.78° C | 81% | 101.1 hPa | - | - | - | - |
| 1777988822 | 12.22° C | 82% | 101.1 hPa | - | - | - | - |
| 1777988756 | 12.78° C | 80% | 101.1 hPa | - | - | - | - |
| 1777988690 | 12.78° C | 80% | 101.1 hPa | - | - | - | - |
| 1777988624 | 12.78° C | 79% | 101.1 hPa | - | - | - | - |
| 1777988558 | 12.78° C | 79% | 101.1 hPa | - | - | - | - |
* Rain since midnight (hover to see other rain measurements)
** Current wind speed in m/s (hover to see current wind gust speed)